sensor_id;sensor_type;location;lat;lon;timestamp;temperature;humidity
36924;DHT22;22841;50.252;18.688;2023-05-09T00:00:19;5.90;99.90
36924;DHT22;22841;50.252;18.688;2023-05-09T00:02:45;5.90;99.90
36924;DHT22;22841;50.252;18.688;2023-05-09T00:05:12;5.90;99.90
36924;DHT22;22841;50.252;18.688;2023-05-09T00:07:39;5.90;99.90
36924;DHT22;22841;50.252;18.688;2023-05-09T00:10:05;5.80;99.90
36924;DHT22;22841;50.252;18.688;2023-05-09T00:12:32;5.80;99.90
36924;DHT22;22841;50.252;18.688;2023-05-09T00:14:58;5.80;99.90
36924;DHT22;22841;50.252;18.688;2023-05-09T00:17:24;5.80;99.90
36924;DHT22;22841;50.252;18.688;2023-05-09T00:19:51;5.80;99.90
36924;DHT22;22841;50.252;18.688;2023-05-09T00:22:18;5.70;99.90
36924;DHT22;22841;50.252;18.688;2023-05-09T00:24:47;5.70;99.90
36924;DHT22;22841;50.252;18.688;2023-05-09T00:27:13;5.60;99.90
36924;DHT22;22841;50.252;18.688;2023-05-09T00:29:39;5.70;99.90
36924;DHT22;22841;50.252;18.688;2023-05-09T00:32:05;5.60;99.90
36924;DHT22;22841;50.252;18.688;2023-05-09T00:34:32;5.60;99.90
36924;DHT22;22841;50.252;18.688;2023-05-09T00:36:58;5.50;99.90
36924;DHT22;22841;50.252;18.688;2023-05-09T00:39:24;5.50;99.90
36924;DHT22;22841;50.252;18.688;2023-05-09T00:41:50;5.60;99.90
36924;DHT22;22841;50.252;18.688;2023-05-09T00:44:16;5.50;99.90
36924;DHT22;22841;50.252;18.688;2023-05-09T00:46:43;5.50;99.90
36924;DHT22;22841;50.252;18.688;2023-05-09T00:49:09;5.50;99.90
36924;DHT22;22841;50.252;18.688;2023-05-09T00:51:38;5.60;99.90
36924;DHT22;22841;50.252;18.688;2023-05-09T00:54:05;5.60;99.90
36924;DHT22;22841;50.252;18.688;2023-05-09T00:56:31;5.60;99.90
36924;DHT22;22841;50.252;18.688;2023-05-09T00:58:57;5.60;99.90
36924;DHT22;22841;50.252;18.688;2023-05-09T01:01:24;5.50;99.90
36924;DHT22;22841;50.252;18.688;2023-05-09T01:03:51;5.50;99.90
36924;DHT22;22841;50.252;18.688;2023-05-09T01:06:37;5.50;99.90
36924;DHT22;22841;50.252;18.688;2023-05-09T01:09:29;5.40;99.90
36924;DHT22;22841;50.252;18.688;2023-05-09T01:12:20;5.40;99.90
36924;DHT22;22841;50.252;18.688;2023-05-09T01:17:32;5.40;99.90
36924;DHT22;22841;50.252;18.688;2023-05-09T01:23:00;5.30;99.90
36924;DHT22;22841;50.252;18.688;2023-05-09T01:25:48;5.20;99.90
36924;DHT22;22841;50.252;18.688;2023-05-09T01:31:18;5.30;99.90
36924;DHT22;22841;50.252;18.688;2023-05-09T01:33:49;5.30;99.90
36924;DHT22;22841;50.252;18.688;2023-05-09T01:36:18;5.20;99.90
36924;DHT22;22841;50.252;18.688;2023-05-09T01:38:49;5.20;99.90
36924;DHT22;22841;50.252;18.688;2023-05-09T01:41:17;5.20;99.90
36924;DHT22;22841;50.252;18.688;2023-05-09T01:43:48;5.20;1.00
36924;DHT22;22841;50.252;18.688;2023-05-09T01:46:16;5.20;99.90
36924;DHT22;22841;50.252;18.688;2023-05-09T01:48:43;5.20;1.00
36924;DHT22;22841;50.252;18.688;2023-05-09T01:51:12;5.20;1.00
36924;DHT22;22841;50.252;18.688;2023-05-09T01:53:39;5.20;1.00
36924;DHT22;22841;50.252;18.688;2023-05-09T01:56:06;5.20;1.00
36924;DHT22;22841;50.252;18.688;2023-05-09T01:58:35;5.20;1.00
36924;DHT22;22841;50.252;18.688;2023-05-09T02:01:03;5.20;1.00
36924;DHT22;22841;50.252;18.688;2023-05-09T02:03:31;5.20;1.00
36924;DHT22;22841;50.252;18.688;2023-05-09T02:06:00;5.20;1.00
36924;DHT22;22841;50.252;18.688;2023-05-09T02:08:27;5.10;1.00
36924;DHT22;22841;50.252;18.688;2023-05-09T02:10:54;5.10;1.00
36924;DHT22;22841;50.252;18.688;2023-05-09T02:13:20;5.10;1.00
36924;DHT22;22841;50.252;18.688;2023-05-09T02:15:46;5.10;1.00
36924;DHT22;22841;50.252;18.688;2023-05-09T02:18:12;5.10;1.00
36924;DHT22;22841;50.252;18.688;2023-05-09T02:20:39;5.10;1.00
36924;DHT22;22841;50.252;18.688;2023-05-09T02:23:05;5.00;1.00
36924;DHT22;22841;50.252;18.688;2023-05-09T02:25:32;5.00;1.00
36924;DHT22;22841;50.252;18.688;2023-05-09T02:27:59;5.00;1.00
36924;DHT22;22841;50.252;18.688;2023-05-09T02:30:28;5.00;1.00
36924;DHT22;22841;50.252;18.688;2023-05-09T02:33:00;5.00;1.00
36924;DHT22;22841;50.252;18.688;2023-05-09T02:35:27;5.00;1.00
36924;DHT22;22841;50.252;18.688;2023-05-09T02:37:54;5.00;1.00
36924;DHT22;22841;50.252;18.688;2023-05-09T02:40:21;5.00;1.00
36924;DHT22;22841;50.252;18.688;2023-05-09T02:42:47;4.90;1.00
36924;DHT22;22841;50.252;18.688;2023-05-09T02:45:13;4.90;1.00
36924;DHT22;22841;50.252;18.688;2023-05-09T02:47:39;4.80;1.00
36924;DHT22;22841;50.252;18.688;2023-05-09T02:50:06;4.90;1.00
36924;DHT22;22841;50.252;18.688;2023-05-09T02:52:32;4.90;1.00
36924;DHT22;22841;50.252;18.688;2023-05-09T02:54:58;4.80;1.00
36924;DHT22;22841;50.252;18.688;2023-05-09T02:57:24;4.80;1.00
36924;DHT22;22841;50.252;18.688;2023-05-09T02:59:50;4.80;1.00
36924;DHT22;22841;50.252;18.688;2023-05-09T03:02:16;4.80;1.00
36924;DHT22;22841;50.252;18.688;2023-05-09T03:04:42;4.80;1.00
36924;DHT22;22841;50.252;18.688;2023-05-09T03:07:09;4.70;1.00
36924;DHT22;22841;50.252;18.688;2023-05-09T03:09:35;4.70;1.00
36924;DHT22;22841;50.252;18.688;2023-05-09T03:12:01;4.70;1.00
36924;DHT22;22841;50.252;18.688;2023-05-09T03:14:28;4.60;1.00
36924;DHT22;22841;50.252;18.688;2023-05-09T03:16:54;4.60;1.00
36924;DHT22;22841;50.252;18.688;2023-05-09T03:19:21;4.60;1.00
36924;DHT22;22841;50.252;18.688;2023-05-09T03:21:47;4.50;1.00
36924;DHT22;22841;50.252;18.688;2023-05-09T03:24:13;4.50;1.00
36924;DHT22;22841;50.252;18.688;2023-05-09T03:26:39;4.50;1.00
36924;DHT22;22841;50.252;18.688;2023-05-09T03:29:05;4.50;1.00
36924;DHT22;22841;50.252;18.688;2023-05-09T03:31:31;4.60;1.00
36924;DHT22;22841;50.252;18.688;2023-05-09T03:33:57;4.60;1.00
36924;DHT22;22841;50.252;18.688;2023-05-09T03:36:23;4.60;1.00
36924;DHT22;22841;50.252;18.688;2023-05-09T03:38:50;4.60;1.00
36924;DHT22;22841;50.252;18.688;2023-05-09T03:41:16;4.60;1.00
36924;DHT22;22841;50.252;18.688;2023-05-09T03:43:43;4.60;1.00
36924;DHT22;22841;50.252;18.688;2023-05-09T03:46:10;4.60;1.00
36924;DHT22;22841;50.252;18.688;2023-05-09T03:48:36;4.60;1.00
36924;DHT22;22841;50.252;18.688;2023-05-09T03:51:02;4.60;1.00
36924;DHT22;22841;50.252;18.688;2023-05-09T03:53:28;4.70;1.00
36924;DHT22;22841;50.252;18.688;2023-05-09T03:55:54;4.70;1.00
36924;DHT22;22841;50.252;18.688;2023-05-09T03:58:20;4.70;1.00
36924;DHT22;22841;50.252;18.688;2023-05-09T04:00:46;4.70;1.00
36924;DHT22;22841;50.252;18.688;2023-05-09T04:03:12;4.70;1.00
36924;DHT22;22841;50.252;18.688;2023-05-09T04:05:39;4.70;1.00
36924;DHT22;22841;50.252;18.688;2023-05-09T04:08:05;4.70;1.00
36924;DHT22;22841;50.252;18.688;2023-05-09T04:10:31;4.80;1.00
36924;DHT22;22841;50.252;18.688;2023-05-09T04:12:57;4.80;1.00
36924;DHT22;22841;50.252;18.688;2023-05-09T04:15:23;4.80;1.00
36924;DHT22;22841;50.252;18.688;2023-05-09T04:17:49;4.80;1.00
36924;DHT22;22841;50.252;18.688;2023-05-09T04:20:15;4.90;1.00
36924;DHT22;22841;50.252;18.688;2023-05-09T04:22:41;4.90;1.00
36924;DHT22;22841;50.252;18.688;2023-05-09T04:25:07;4.90;1.00
36924;DHT22;22841;50.252;18.688;2023-05-09T04:27:39;4.90;1.00
36924;DHT22;22841;50.252;18.688;2023-05-09T04:30:07;5.00;1.00
36924;DHT22;22841;50.252;18.688;2023-05-09T04:32:33;5.00;1.00
36924;DHT22;22841;50.252;18.688;2023-05-09T04:35:00;5.00;1.00
36924;DHT22;22841;50.252;18.688;2023-05-09T04:37:26;5.10;1.00
36924;DHT22;22841;50.252;18.688;2023-05-09T04:39:52;5.10;1.00
36924;DHT22;22841;50.252;18.688;2023-05-09T04:42:18;5.20;1.00
36924;DHT22;22841;50.252;18.688;2023-05-09T04:44:44;5.20;1.00
36924;DHT22;22841;50.252;18.688;2023-05-09T04:47:10;5.30;1.00
36924;DHT22;22841;50.252;18.688;2023-05-09T04:49:36;5.30;1.00
36924;DHT22;22841;50.252;18.688;2023-05-09T04:52:02;5.30;1.00
36924;DHT22;22841;50.252;18.688;2023-05-09T04:54:29;5.40;1.00
36924;DHT22;22841;50.252;18.688;2023-05-09T04:56:55;5.50;1.00
36924;DHT22;22841;50.252;18.688;2023-05-09T04:59:21;5.60;1.00
36924;DHT22;22841;50.252;18.688;2023-05-09T05:01:47;5.80;1.00
36924;DHT22;22841;50.252;18.688;2023-05-09T05:04:13;6.00;1.00
36924;DHT22;22841;50.252;18.688;2023-05-09T05:06:39;6.00;1.00
36924;DHT22;22841;50.252;18.688;2023-05-09T05:09:05;6.20;1.00
36924;DHT22;22841;50.252;18.688;2023-05-09T05:11:31;6.30;1.00
36924;DHT22;22841;50.252;18.688;2023-05-09T05:13:57;6.40;1.00
36924;DHT22;22841;50.252;18.688;2023-05-09T05:16:23;6.50;1.00
36924;DHT22;22841;50.252;18.688;2023-05-09T05:18:49;6.70;1.00
36924;DHT22;22841;50.252;18.688;2023-05-09T05:21:15;6.80;1.00
36924;DHT22;22841;50.252;18.688;2023-05-09T05:23:41;7.00;1.00
36924;DHT22;22841;50.252;18.688;2023-05-09T05:26:07;7.10;1.00
36924;DHT22;22841;50.252;18.688;2023-05-09T05:28:33;7.20;1.00
36924;DHT22;22841;50.252;18.688;2023-05-09T05:30:59;7.30;1.00
36924;DHT22;22841;50.252;18.688;2023-05-09T05:33:25;7.50;1.00
36924;DHT22;22841;50.252;18.688;2023-05-09T05:35:51;7.60;1.00
36924;DHT22;22841;50.252;18.688;2023-05-09T05:38:18;7.60;1.00
36924;DHT22;22841;50.252;18.688;2023-05-09T05:40:44;7.70;1.00
36924;DHT22;22841;50.252;18.688;2023-05-09T05:43:10;7.70;1.00
36924;DHT22;22841;50.252;18.688;2023-05-09T05:45:36;7.80;1.00
36924;DHT22;22841;50.252;18.688;2023-05-09T05:48:02;8.00;99.90
36924;DHT22;22841;50.252;18.688;2023-05-09T05:50:28;8.00;99.90
36924;DHT22;22841;50.252;18.688;2023-05-09T05:52:54;8.10;99.90
36924;DHT22;22841;50.252;18.688;2023-05-09T05:55:21;8.20;99.90
36924;DHT22;22841;50.252;18.688;2023-05-09T05:57:47;8.20;99.90
36924;DHT22;22841;50.252;18.688;2023-05-09T06:00:14;8.40;99.90
36924;DHT22;22841;50.252;18.688;2023-05-09T06:02:43;8.40;99.90
36924;DHT22;22841;50.252;18.688;2023-05-09T06:05:10;8.50;99.90
36924;DHT22;22841;50.252;18.688;2023-05-09T06:07:36;8.70;99.90
36924;DHT22;22841;50.252;18.688;2023-05-09T06:10:03;8.80;99.90
36924;DHT22;22841;50.252;18.688;2023-05-09T06:12:29;8.80;99.90
36924;DHT22;22841;50.252;18.688;2023-05-09T06:14:55;8.90;99.90
36924;DHT22;22841;50.252;18.688;2023-05-09T06:17:21;9.00;99.90
36924;DHT22;22841;50.252;18.688;2023-05-09T06:19:47;9.00;99.90
36924;DHT22;22841;50.252;18.688;2023-05-09T06:22:13;9.10;99.90
36924;DHT22;22841;50.252;18.688;2023-05-09T06:24:39;9.10;99.90
36924;DHT22;22841;50.252;18.688;2023-05-09T06:27:05;9.20;99.90
36924;DHT22;22841;50.252;18.688;2023-05-09T06:29:31;9.30;99.90
36924;DHT22;22841;50.252;18.688;2023-05-09T06:31:57;9.40;99.90
36924;DHT22;22841;50.252;18.688;2023-05-09T06:34:24;9.40;99.90
36924;DHT22;22841;50.252;18.688;2023-05-09T06:36:50;9.50;99.90
36924;DHT22;22841;50.252;18.688;2023-05-09T06:39:16;9.50;99.90
36924;DHT22;22841;50.252;18.688;2023-05-09T06:41:42;9.60;99.90
36924;DHT22;22841;50.252;18.688;2023-05-09T06:44:08;9.70;99.90
36924;DHT22;22841;50.252;18.688;2023-05-09T06:46:34;9.70;99.90
36924;DHT22;22841;50.252;18.688;2023-05-09T06:49:00;9.80;99.90
36924;DHT22;22841;50.252;18.688;2023-05-09T06:51:27;9.90;52.80
36924;DHT22;22841;50.252;18.688;2023-05-09T06:53:54;10.00;1.00
36924;DHT22;22841;50.252;18.688;2023-05-09T06:56:20;10.00;1.00
36924;DHT22;22841;50.252;18.688;2023-05-09T06:58:48;10.10;4.00
36924;DHT22;22841;50.252;18.688;2023-05-09T07:01:14;10.20;1.00
36924;DHT22;22841;50.252;18.688;2023-05-09T07:03:40;10.30;1.00
36924;DHT22;22841;50.252;18.688;2023-05-09T07:06:06;10.40;99.90
36924;DHT22;22841;50.252;18.688;2023-05-09T07:08:32;10.40;99.90
36924;DHT22;22841;50.252;18.688;2023-05-09T07:10:58;10.50;99.90
36924;DHT22;22841;50.252;18.688;2023-05-09T07:13:24;10.60;99.90
36924;DHT22;22841;50.252;18.688;2023-05-09T07:15:50;10.60;99.90
36924;DHT22;22841;50.252;18.688;2023-05-09T07:18:16;10.70;99.90
36924;DHT22;22841;50.252;18.688;2023-05-09T07:20:43;10.70;99.90
36924;DHT22;22841;50.252;18.688;2023-05-09T07:23:09;10.80;99.90
36924;DHT22;22841;50.252;18.688;2023-05-09T07:25:35;11.00;99.90
36924;DHT22;22841;50.252;18.688;2023-05-09T07:28:01;11.20;1.00
36924;DHT22;22841;50.252;18.688;2023-05-09T07:30:27;11.30;1.00
36924;DHT22;22841;50.252;18.688;2023-05-09T07:32:53;11.40;1.00
36924;DHT22;22841;50.252;18.688;2023-05-09T07:35:19;11.50;99.90
36924;DHT22;22841;50.252;18.688;2023-05-09T07:37:45;11.50;99.90
36924;DHT22;22841;50.252;18.688;2023-05-09T07:40:12;11.60;99.90
36924;DHT22;22841;50.252;18.688;2023-05-09T07:42:38;11.60;1.00
36924;DHT22;22841;50.252;18.688;2023-05-09T07:45:04;11.70;99.90
36924;DHT22;22841;50.252;18.688;2023-05-09T07:47:31;11.80;99.90
36924;DHT22;22841;50.252;18.688;2023-05-09T07:49:58;12.00;99.90
36924;DHT22;22841;50.252;18.688;2023-05-09T07:52:24;12.10;99.90
36924;DHT22;22841;50.252;18.688;2023-05-09T07:54:50;12.10;1.00
36924;DHT22;22841;50.252;18.688;2023-05-09T07:57:16;12.20;99.90
36924;DHT22;22841;50.252;18.688;2023-05-09T07:59:42;12.10;1.00
36924;DHT22;22841;50.252;18.688;2023-05-09T08:02:08;12.20;1.00
36924;DHT22;22841;50.252;18.688;2023-05-09T08:04:34;12.30;47.60
36924;DHT22;22841;50.252;18.688;2023-05-09T08:07:03;12.50;99.90
36924;DHT22;22841;50.252;18.688;2023-05-09T08:09:29;12.50;1.00
36924;DHT22;22841;50.252;18.688;2023-05-09T08:11:55;12.50;48.90
36924;DHT22;22841;50.252;18.688;2023-05-09T08:14:21;12.60;99.90
36924;DHT22;22841;50.252;18.688;2023-05-09T08:16:47;12.50;33.30
36924;DHT22;22841;50.252;18.688;2023-05-09T08:19:13;12.60;99.90
36924;DHT22;22841;50.252;18.688;2023-05-09T08:21:40;12.70;1.00
36924;DHT22;22841;50.252;18.688;2023-05-09T08:24:06;12.70;1.00
36924;DHT22;22841;50.252;18.688;2023-05-09T08:26:34;12.60;99.90
36924;DHT22;22841;50.252;18.688;2023-05-09T08:29:00;12.60;99.90
36924;DHT22;22841;50.252;18.688;2023-05-09T08:31:26;12.70;99.90
36924;DHT22;22841;50.252;18.688;2023-05-09T08:33:52;12.90;1.00
36924;DHT22;22841;50.252;18.688;2023-05-09T08:36:18;13.20;36.00
36924;DHT22;22841;50.252;18.688;2023-05-09T08:38:45;13.30;99.90
36924;DHT22;22841;50.252;18.688;2023-05-09T08:41:11;13.30;99.90
36924;DHT22;22841;50.252;18.688;2023-05-09T08:43:37;13.30;99.90
36924;DHT22;22841;50.252;18.688;2023-05-09T08:46:09;13.30;1.00
36924;DHT22;22841;50.252;18.688;2023-05-09T08:48:35;13.40;99.90
36924;DHT22;22841;50.252;18.688;2023-05-09T08:51:03;13.50;99.90
36924;DHT22;22841;50.252;18.688;2023-05-09T08:53:30;13.50;42.40
36924;DHT22;22841;50.252;18.688;2023-05-09T08:55:58;13.60;99.90
36924;DHT22;22841;50.252;18.688;2023-05-09T08:58:25;13.70;1.00
36924;DHT22;22841;50.252;18.688;2023-05-09T09:00:51;13.70;18.50
36924;DHT22;22841;50.252;18.688;2023-05-09T09:03:18;13.80;99.90
36924;DHT22;22841;50.252;18.688;2023-05-09T09:05:45;14.00;1.00
36924;DHT22;22841;50.252;18.688;2023-05-09T09:08:13;13.90;99.90
36924;DHT22;22841;50.252;18.688;2023-05-09T09:10:40;13.90;99.90
36924;DHT22;22841;50.252;18.688;2023-05-09T09:13:13;14.00;1.00
36924;DHT22;22841;50.252;18.688;2023-05-09T09:15:40;14.10;99.90
36924;DHT22;22841;50.252;18.688;2023-05-09T09:18:11;14.10;99.90
36924;DHT22;22841;50.252;18.688;2023-05-09T09:20:47;14.20;62.60
36924;DHT22;22841;50.252;18.688;2023-05-09T09:23:17;14.20;99.90
36924;DHT22;22841;50.252;18.688;2023-05-09T09:25:46;14.10;1.00
36924;DHT22;22841;50.252;18.688;2023-05-09T09:28:12;14.00;99.90
36924;DHT22;22841;50.252;18.688;2023-05-09T09:30:46;14.00;3.80
36924;DHT22;22841;50.252;18.688;2023-05-09T09:33:24;13.90;97.00
36924;DHT22;22841;50.252;18.688;2023-05-09T09:35:52;13.90;99.90
36924;DHT22;22841;50.252;18.688;2023-05-09T09:38:19;14.10;99.90
36924;DHT22;22841;50.252;18.688;2023-05-09T09:40:54;14.20;99.90
36924;DHT22;22841;50.252;18.688;2023-05-09T09:43:28;14.20;99.90
36924;DHT22;22841;50.252;18.688;2023-05-09T09:45:54;14.20;1.00
36924;DHT22;22841;50.252;18.688;2023-05-09T09:48:25;14.30;99.90
36924;DHT22;22841;50.252;18.688;2023-05-09T09:50:55;14.30;1.00
36924;DHT22;22841;50.252;18.688;2023-05-09T09:53:26;14.20;99.90
36924;DHT22;22841;50.252;18.688;2023-05-09T09:55:55;13.90;1.00
36924;DHT22;22841;50.252;18.688;2023-05-09T09:58:21;14.10;1.00
36924;DHT22;22841;50.252;18.688;2023-05-09T10:01:09;14.00;99.90
36924;DHT22;22841;50.252;18.688;2023-05-09T10:03:40;14.00;1.00
36924;DHT22;22841;50.252;18.688;2023-05-09T10:06:12;13.90;99.90
36924;DHT22;22841;50.252;18.688;2023-05-09T10:08:39;13.90;99.90
36924;DHT22;22841;50.252;18.688;2023-05-09T10:11:05;14.10;96.00
36924;DHT22;22841;50.252;18.688;2023-05-09T10:13:35;14.20;99.90
36924;DHT22;22841;50.252;18.688;2023-05-09T10:16:02;14.40;1.00
36924;DHT22;22841;50.252;18.688;2023-05-09T10:18:29;14.50;32.30
36924;DHT22;22841;50.252;18.688;2023-05-09T10:20:56;14.60;99.90
36924;DHT22;22841;50.252;18.688;2023-05-09T10:23:29;14.60;99.90
36924;DHT22;22841;50.252;18.688;2023-05-09T10:28:34;14.70;1.00
36924;DHT22;22841;50.252;18.688;2023-05-09T10:33:42;14.80;99.90
36924;DHT22;22841;50.252;18.688;2023-05-09T10:36:11;14.70;99.90
36924;DHT22;22841;50.252;18.688;2023-05-09T10:38:38;14.60;99.90
36924;DHT22;22841;50.252;18.688;2023-05-09T10:41:04;14.60;1.00
36924;DHT22;22841;50.252;18.688;2023-05-09T10:43:32;14.60;78.70
36924;DHT22;22841;50.252;18.688;2023-05-09T10:45:58;14.60;94.70
36924;DHT22;22841;50.252;18.688;2023-05-09T10:48:24;14.60;99.90
36924;DHT22;22841;50.252;18.688;2023-05-09T10:50:51;14.80;99.90
36924;DHT22;22841;50.252;18.688;2023-05-09T10:53:18;14.70;1.00
36924;DHT22;22841;50.252;18.688;2023-05-09T10:58:27;14.40;99.90
36924;DHT22;22841;50.252;18.688;2023-05-09T11:00:57;14.60;1.00
36924;DHT22;22841;50.252;18.688;2023-05-09T11:03:24;14.80;99.90
36924;DHT22;22841;50.252;18.688;2023-05-09T11:05:52;15.00;1.00
36924;DHT22;22841;50.252;18.688;2023-05-09T11:10:50;15.30;1.00
36924;DHT22;22841;50.252;18.688;2023-05-09T11:13:19;15.30;44.20
36924;DHT22;22841;50.252;18.688;2023-05-09T11:16:07;15.50;1.00
36924;DHT22;22841;50.252;18.688;2023-05-09T11:18:33;15.60;1.00
36924;DHT22;22841;50.252;18.688;2023-05-09T11:21:07;15.50;99.90
36924;DHT22;22841;50.252;18.688;2023-05-09T11:23:34;15.60;99.90
36924;DHT22;22841;50.252;18.688;2023-05-09T11:26:05;15.50;99.90
36924;DHT22;22841;50.252;18.688;2023-05-09T11:28:36;15.30;99.90
36924;DHT22;22841;50.252;18.688;2023-05-09T11:31:13;15.40;99.90
36924;DHT22;22841;50.252;18.688;2023-05-09T11:33:40;15.50;99.90
36924;DHT22;22841;50.252;18.688;2023-05-09T11:36:19;15.50;99.90
36924;DHT22;22841;50.252;18.688;2023-05-09T11:41:29;15.80;99.90
36924;DHT22;22841;50.252;18.688;2023-05-09T11:43:56;15.90;99.90
36924;DHT22;22841;50.252;18.688;2023-05-09T11:46:25;15.60;99.90
36924;DHT22;22841;50.252;18.688;2023-05-09T11:48:52;15.60;99.90
36924;DHT22;22841;50.252;18.688;2023-05-09T11:51:19;15.70;99.90
36924;DHT22;22841;50.252;18.688;2023-05-09T11:53:49;15.70;94.10
36924;DHT22;22841;50.252;18.688;2023-05-09T11:56:16;15.40;99.90
36924;DHT22;22841;50.252;18.688;2023-05-09T11:58:43;15.50;99.90
36924;DHT22;22841;50.252;18.688;2023-05-09T12:01:11;15.70;99.90
36924;DHT22;22841;50.252;18.688;2023-05-09T12:03:43;15.70;99.90
36924;DHT22;22841;50.252;18.688;2023-05-09T12:06:14;15.80;99.90
36924;DHT22;22841;50.252;18.688;2023-05-09T12:08:42;15.80;99.90
36924;DHT22;22841;50.252;18.688;2023-05-09T12:11:08;15.90;99.90
36924;DHT22;22841;50.252;18.688;2023-05-09T12:13:35;16.00;76.30
36924;DHT22;22841;50.252;18.688;2023-05-09T12:16:01;16.20;99.90
36924;DHT22;22841;50.252;18.688;2023-05-09T12:18:27;16.50;99.90
36924;DHT22;22841;50.252;18.688;2023-05-09T12:20:53;16.60;92.30
36924;DHT22;22841;50.252;18.688;2023-05-09T12:23:19;16.90;64.90
36924;DHT22;22841;50.252;18.688;2023-05-09T12:25:55;16.80;11.30
36924;DHT22;22841;50.252;18.688;2023-05-09T12:28:22;17.00;1.00
36924;DHT22;22841;50.252;18.688;2023-05-09T12:30:49;17.60;1.00
36924;DHT22;22841;50.252;18.688;2023-05-09T12:33:16;17.80;1.00
36924;DHT22;22841;50.252;18.688;2023-05-09T12:36:03;18.00;1.00
36924;DHT22;22841;50.252;18.688;2023-05-09T12:38:30;18.20;1.00
36924;DHT22;22841;50.252;18.688;2023-05-09T12:41:04;18.20;1.00
36924;DHT22;22841;50.252;18.688;2023-05-09T12:43:32;18.30;1.00
36924;DHT22;22841;50.252;18.688;2023-05-09T12:45:59;18.50;1.00
36924;DHT22;22841;50.252;18.688;2023-05-09T12:48:26;18.50;1.00
36924;DHT22;22841;50.252;18.688;2023-05-09T12:50:52;18.30;1.00
36924;DHT22;22841;50.252;18.688;2023-05-09T12:53:26;17.90;1.00
36924;DHT22;22841;50.252;18.688;2023-05-09T12:56:03;17.40;1.00
36924;DHT22;22841;50.252;18.688;2023-05-09T12:58:31;16.80;1.00
36924;DHT22;22841;50.252;18.688;2023-05-09T13:00:58;16.90;1.00
36924;DHT22;22841;50.252;18.688;2023-05-09T13:03:26;16.90;1.00
36924;DHT22;22841;50.252;18.688;2023-05-09T13:05:56;17.00;1.00
36924;DHT22;22841;50.252;18.688;2023-05-09T13:08:22;16.90;1.00
36924;DHT22;22841;50.252;18.688;2023-05-09T13:10:48;17.10;1.00
36924;DHT22;22841;50.252;18.688;2023-05-09T13:13:18;16.90;1.00
36924;DHT22;22841;50.252;18.688;2023-05-09T13:15:45;16.70;1.00
36924;DHT22;22841;50.252;18.688;2023-05-09T13:18:11;16.60;1.00
36924;DHT22;22841;50.252;18.688;2023-05-09T13:20:37;16.30;36.30
36924;DHT22;22841;50.252;18.688;2023-05-09T13:23:03;16.20;28.60
36924;DHT22;22841;50.252;18.688;2023-05-09T13:25:29;16.40;90.60
36924;DHT22;22841;50.252;18.688;2023-05-09T13:27:55;16.60;36.80
36924;DHT22;22841;50.252;18.688;2023-05-09T13:30:22;16.70;12.10
36924;DHT22;22841;50.252;18.688;2023-05-09T13:32:48;16.80;55.40
36924;DHT22;22841;50.252;18.688;2023-05-09T13:35:15;16.80;1.00
36924;DHT22;22841;50.252;18.688;2023-05-09T13:37:41;16.80;1.00
36924;DHT22;22841;50.252;18.688;2023-05-09T13:40:09;16.80;1.00
36924;DHT22;22841;50.252;18.688;2023-05-09T13:42:35;16.60;1.00
36924;DHT22;22841;50.252;18.688;2023-05-09T13:45:01;16.60;1.00
36924;DHT22;22841;50.252;18.688;2023-05-09T13:47:28;16.60;19.70
36924;DHT22;22841;50.252;18.688;2023-05-09T13:49:54;16.50;8.30
36924;DHT22;22841;50.252;18.688;2023-05-09T13:52:20;16.50;17.20
36924;DHT22;22841;50.252;18.688;2023-05-09T13:54:46;16.50;61.60
36924;DHT22;22841;50.252;18.688;2023-05-09T13:57:12;16.40;32.40
36924;DHT22;22841;50.252;18.688;2023-05-09T13:59:38;16.40;41.80
36924;DHT22;22841;50.252;18.688;2023-05-09T14:02:06;16.50;33.80
36924;DHT22;22841;50.252;18.688;2023-05-09T14:04:33;16.50;58.90
36924;DHT22;22841;50.252;18.688;2023-05-09T14:06:59;16.50;33.90
36924;DHT22;22841;50.252;18.688;2023-05-09T14:09:26;16.40;9.40
36924;DHT22;22841;50.252;18.688;2023-05-09T14:11:53;16.40;25.40
36924;DHT22;22841;50.252;18.688;2023-05-09T14:14:21;16.40;90.80
36924;DHT22;22841;50.252;18.688;2023-05-09T14:16:48;16.50;41.90
36924;DHT22;22841;50.252;18.688;2023-05-09T14:19:15;16.50;49.70
36924;DHT22;22841;50.252;18.688;2023-05-09T14:21:42;16.50;38.20
36924;DHT22;22841;50.252;18.688;2023-05-09T14:24:09;16.40;92.10
36924;DHT22;22841;50.252;18.688;2023-05-09T14:26:36;16.30;99.90
36924;DHT22;22841;50.252;18.688;2023-05-09T14:29:03;16.40;58.00
36924;DHT22;22841;50.252;18.688;2023-05-09T14:31:30;16.30;99.30
36924;DHT22;22841;50.252;18.688;2023-05-09T14:33:56;16.30;99.90
36924;DHT22;22841;50.252;18.688;2023-05-09T14:36:25;16.40;35.50
36924;DHT22;22841;50.252;18.688;2023-05-09T14:38:52;16.30;17.50
36924;DHT22;22841;50.252;18.688;2023-05-09T14:41:18;16.30;87.40
36924;DHT22;22841;50.252;18.688;2023-05-09T14:43:44;16.30;38.60
36924;DHT22;22841;50.252;18.688;2023-05-09T14:46:10;16.40;51.00
36924;DHT22;22841;50.252;18.688;2023-05-09T14:48:36;16.40;13.60
36924;DHT22;22841;50.252;18.688;2023-05-09T14:51:03;16.30;26.80
36924;DHT22;22841;50.252;18.688;2023-05-09T14:53:29;16.40;8.60
36924;DHT22;22841;50.252;18.688;2023-05-09T14:55:55;16.30;30.60
36924;DHT22;22841;50.252;18.688;2023-05-09T14:58:22;16.20;41.10
36924;DHT22;22841;50.252;18.688;2023-05-09T15:00:48;16.10;55.40
36924;DHT22;22841;50.252;18.688;2023-05-09T15:03:14;16.00;31.20
36924;DHT22;22841;50.252;18.688;2023-05-09T15:05:40;16.00;91.70
36924;DHT22;22841;50.252;18.688;2023-05-09T15:08:07;16.00;62.50
36924;DHT22;22841;50.252;18.688;2023-05-09T15:10:33;15.90;25.80
36924;DHT22;22841;50.252;18.688;2023-05-09T15:13:00;15.90;66.30
36924;DHT22;22841;50.252;18.688;2023-05-09T15:15:28;15.90;58.60
36924;DHT22;22841;50.252;18.688;2023-05-09T15:17:54;15.90;52.10
36924;DHT22;22841;50.252;18.688;2023-05-09T15:20:20;15.90;78.80
36924;DHT22;22841;50.252;18.688;2023-05-09T15:22:47;15.80;61.10
36924;DHT22;22841;50.252;18.688;2023-05-09T15:25:14;15.80;56.00
36924;DHT22;22841;50.252;18.688;2023-05-09T15:27:41;15.80;88.50
36924;DHT22;22841;50.252;18.688;2023-05-09T15:30:08;15.80;46.10
36924;DHT22;22841;50.252;18.688;2023-05-09T15:32:37;15.80;68.60
36924;DHT22;22841;50.252;18.688;2023-05-09T15:35:05;15.70;66.10
36924;DHT22;22841;50.252;18.688;2023-05-09T15:37:31;15.80;90.00
36924;DHT22;22841;50.252;18.688;2023-05-09T15:39:57;15.80;64.90
36924;DHT22;22841;50.252;18.688;2023-05-09T15:42:24;15.80;91.60
36924;DHT22;22841;50.252;18.688;2023-05-09T15:44:50;15.70;36.60
36924;DHT22;22841;50.252;18.688;2023-05-09T15:47:16;15.70;99.90
36924;DHT22;22841;50.252;18.688;2023-05-09T15:49:42;15.70;54.10
36924;DHT22;22841;50.252;18.688;2023-05-09T15:52:08;15.70;40.10